createdAt,value
2023-05-06T00:00:55.061Z,93.84
2023-05-06T00:03:23.920Z,94.50
2023-05-06T00:05:52.593Z,93.45
2023-05-06T00:08:22.745Z,93.94
2023-05-06T00:10:51.318Z,93.50
2023-05-06T00:13:20.163Z,93.26
2023-05-06T00:15:49.048Z,94.77
2023-05-06T00:18:17.523Z,94.68
2023-05-06T00:20:46.005Z,94.42
2023-05-06T00:23:14.467Z,92.34
2023-05-06T00:25:44.358Z,93.68
2023-05-06T00:28:12.841Z,94.28
2023-05-06T00:30:41.346Z,92.42
2023-05-06T00:33:09.955Z,92.49
2023-05-06T00:35:38.714Z,94.54
2023-05-06T00:38:12.245Z,94.22
2023-05-06T00:40:43.132Z,94.14
2023-05-06T00:43:12.597Z,95.06
2023-05-06T00:45:41.759Z,93.44
2023-05-06T00:48:10.824Z,93.50
2023-05-06T00:50:41.516Z,95.00
2023-05-06T00:53:11.692Z,95.68
2023-05-06T00:55:41.191Z,95.39
2023-05-06T00:58:11.626Z,96.01
2023-05-06T01:00:40.494Z,95.11
2023-05-06T01:03:09.353Z,94.49
2023-05-06T01:05:55.087Z,91.70
2023-05-06T01:08:31.933Z,92.18
2023-05-06T01:11:08.890Z,93.39
2023-05-06T01:13:48.735Z,93.77
2023-05-06T01:16:21.623Z,93.77
2023-05-06T01:18:53.131Z,95.08
2023-05-06T01:21:24.769Z,94.86
2023-05-06T01:23:57.788Z,93.58
2023-05-06T01:26:26.926Z,93.82
2023-05-06T01:28:55.985Z,93.72
2023-05-06T01:31:28.371Z,92.94
2023-05-06T01:34:07.998Z,91.89
2023-05-06T01:36:46.429Z,94.43
2023-05-06T01:39:20.271Z,93.59
2023-05-06T01:41:51.424Z,93.54
2023-05-06T01:44:23.699Z,92.45
2023-05-06T01:46:54.402Z,92.03
2023-05-06T01:49:24.722Z,93.97
2023-05-06T01:51:55.152Z,94.39
2023-05-06T01:54:25.247Z,95.10
2023-05-06T01:56:53.936Z,94.28
2023-05-06T01:59:22.648Z,94.42
2023-05-06T02:01:51.246Z,93.48
2023-05-06T02:04:19.716Z,93.09
2023-05-06T02:06:48.210Z,93.78
2023-05-06T02:09:16.892Z,94.38
2023-05-06T02:11:47.024Z,93.41
2023-05-06T02:14:15.476Z,93.28
2023-05-06T02:16:43.981Z,94.60
2023-05-06T02:19:12.513Z,94.34
2023-05-06T02:21:40.983Z,92.48
2023-05-06T02:24:09.601Z,92.73
2023-05-06T02:26:38.072Z,92.82
2023-05-06T02:29:07.973Z,93.08
2023-05-06T02:31:36.491Z,92.40
2023-05-06T02:34:04.978Z,93.38
2023-05-06T02:36:33.785Z,93.47
2023-05-06T02:39:02.382Z,95.17
2023-05-06T02:41:31.344Z,95.85
2023-05-06T02:43:59.793Z,96.21
2023-05-06T02:46:29.628Z,95.18
2023-05-06T02:48:58.072Z,94.34
2023-05-06T02:51:26.514Z,93.88
2023-05-06T02:53:55.182Z,95.79
2023-05-06T02:56:23.599Z,95.18
2023-05-06T02:58:52.048Z,95.70
2023-05-06T03:01:20.565Z,94.87
2023-05-06T03:03:51.103Z,94.57
2023-05-06T03:06:19.673Z,95.79
2023-05-06T03:08:48.094Z,95.53
2023-05-06T03:11:16.523Z,96.42
2023-05-06T03:13:44.963Z,96.98
2023-05-06T03:16:14.696Z,94.88
2023-05-06T03:18:43.158Z,96.06
2023-05-06T03:21:13.105Z,95.07
2023-05-06T03:23:41.603Z,94.11
2023-05-06T03:26:10.091Z,95.47
2023-05-06T03:28:38.586Z,96.43
2023-05-06T03:31:07.320Z,95.29
2023-05-06T03:33:35.995Z,95.60
2023-05-06T03:36:04.970Z,94.72
2023-05-06T03:38:35.181Z,94.01
2023-05-06T03:41:03.689Z,94.03
2023-05-06T03:43:32.122Z,94.28
2023-05-06T03:46:00.736Z,94.48
2023-05-06T03:48:29.183Z,94.00
2023-05-06T03:51:00.758Z,94.21
2023-05-06T03:53:30.207Z,93.29
2023-05-06T03:56:01.684Z,94.96
2023-05-06T03:58:30.128Z,95.29
2023-05-06T04:01:00.944Z,94.17
2023-05-06T04:03:29.731Z,94.54
2023-05-06T04:05:58.247Z,93.95
2023-05-06T04:08:27.030Z,94.36
2023-05-06T04:10:56.472Z,94.50
2023-05-06T04:13:26.292Z,94.70
2023-05-06T04:15:54.986Z,94.70
2023-05-06T04:18:23.472Z,95.58
2023-05-06T04:20:52.094Z,94.68
2023-05-06T04:23:20.554Z,95.02
2023-05-06T04:25:49.608Z,94.49
2023-05-06T04:28:18.718Z,94.79
2023-05-06T04:30:48.678Z,95.50
2023-05-06T04:33:17.153Z,95.61
2023-05-06T04:35:54.287Z,94.35
2023-05-06T04:38:25.816Z,95.32
2023-05-06T04:40:55.587Z,94.85
2023-05-06T04:43:24.178Z,95.93
2023-05-06T04:45:54.400Z,95.51
2023-05-06T04:48:23.413Z,95.75
2023-05-06T04:50:52.415Z,94.98
2023-05-06T04:53:21.081Z,96.61
2023-05-06T04:55:49.561Z,96.58
2023-05-06T04:58:19.006Z,95.54
2023-05-06T05:00:47.432Z,96.29
2023-05-06T05:03:17.445Z,96.92
2023-05-06T05:05:46.000Z,95.45
2023-05-06T05:08:14.708Z,95.40
2023-05-06T05:10:43.853Z,95.26
2023-05-06T05:13:12.320Z,95.62
2023-05-06T05:15:40.813Z,95.06
2023-05-06T05:18:09.370Z,94.89
2023-05-06T05:20:39.254Z,94.89
2023-05-06T05:23:07.696Z,94.69
2023-05-06T05:25:36.209Z,94.71
2023-05-06T05:28:07.014Z,95.07
2023-05-06T05:30:35.643Z,94.05
2023-05-06T05:33:04.209Z,94.42
2023-05-06T05:35:33.058Z,94.21
2023-05-06T05:38:02.944Z,93.80
2023-05-06T05:40:31.611Z,94.29
2023-05-06T05:43:00.070Z,94.13
2023-05-06T05:45:28.592Z,95.74
2023-05-06T05:47:57.275Z,95.00
2023-05-06T05:50:26.204Z,94.54
2023-05-06T05:52:54.685Z,94.61
2023-05-06T05:55:24.601Z,94.46
2023-05-06T05:57:53.042Z,94.61
2023-05-06T06:00:22.550Z,93.63
2023-05-06T06:02:51.093Z,93.50
2023-05-06T06:05:20.027Z,94.42
2023-05-06T06:07:48.848Z,94.17
2023-05-06T06:10:17.370Z,93.62
2023-05-06T06:12:47.428Z,93.74
2023-05-06T06:15:17.015Z,93.28
2023-05-06T06:17:45.569Z,93.63
2023-05-06T06:20:15.246Z,93.49
2023-05-06T06:22:43.691Z,93.36
2023-05-06T06:25:12.676Z,94.06
2023-05-06T06:27:41.193Z,94.31
2023-05-06T06:30:12.508Z,93.95
2023-05-06T06:32:50.786Z,92.91
2023-05-06T06:35:20.270Z,92.68
2023-05-06T06:37:49.056Z,92.68
2023-05-06T06:40:17.951Z,92.90
2023-05-06T06:42:47.320Z,93.43
2023-05-06T06:45:17.381Z,91.97
2023-05-06T06:47:46.366Z,91.75
2023-05-06T06:50:15.042Z,91.27
2023-05-06T06:52:43.475Z,91.92
2023-05-06T06:55:12.439Z,91.06
2023-05-06T06:57:41.688Z,91.94
2023-05-06T07:00:11.708Z,90.64
2023-05-06T07:02:41.646Z,90.29
2023-05-06T07:05:11.066Z,90.17
2023-05-06T07:07:40.108Z,87.91
2023-05-06T07:10:10.201Z,88.83
2023-05-06T07:12:38.835Z,86.79
2023-05-06T07:15:09.189Z,86.47
2023-05-06T07:17:38.143Z,86.11
2023-05-06T07:20:10.464Z,83.31
2023-05-06T07:22:39.387Z,83.80
2023-05-06T07:25:09.742Z,80.62
2023-05-06T07:27:38.343Z,77.07
2023-05-06T07:30:08.666Z,78.78
2023-05-06T07:32:37.194Z,75.62
2023-05-06T07:35:08.262Z,74.98
2023-05-06T07:37:36.901Z,76.04
2023-05-06T07:40:07.234Z,76.27
2023-05-06T07:42:35.735Z,81.93
2023-05-06T07:45:04.476Z,81.14
2023-05-06T07:47:33.781Z,82.38
2023-05-06T07:50:02.290Z,80.79
2023-05-06T07:52:32.418Z,79.42
2023-05-06T07:55:00.841Z,75.41
2023-05-06T07:57:29.277Z,76.55
2023-05-06T07:59:58.519Z,80.44
2023-05-06T08:02:28.082Z,83.68
2023-05-06T08:04:56.920Z,82.45
2023-05-06T08:07:25.449Z,82.83
2023-05-06T08:09:56.795Z,81.17
2023-05-06T08:12:25.250Z,79.83
2023-05-06T08:14:54.908Z,75.58
2023-05-06T08:17:23.427Z,72.12
2023-05-06T08:19:51.927Z,72.80
2023-05-06T08:22:20.393Z,69.94
2023-05-06T08:24:48.833Z,70.07
2023-05-06T08:27:18.650Z,70.87
2023-05-06T08:29:47.124Z,64.85
2023-05-06T08:32:15.790Z,65.60
2023-05-06T08:34:44.440Z,62.87
2023-05-06T08:37:13.192Z,62.20
2023-05-06T08:39:41.719Z,62.41
2023-05-06T08:42:12.638Z,61.15
2023-05-06T08:44:45.189Z,60.97
2023-05-06T08:47:14.065Z,60.90
2023-05-06T08:49:42.585Z,63.04
2023-05-06T08:52:11.349Z,64.75
2023-05-06T08:54:40.030Z,63.31
2023-05-06T08:57:12.798Z,63.48
2023-05-06T08:59:45.275Z,64.52
2023-05-06T09:02:14.713Z,63.98
2023-05-06T09:04:43.947Z,63.53
2023-05-06T09:07:12.511Z,63.68
2023-05-06T09:09:40.945Z,64.37
2023-05-06T09:12:13.567Z,62.86
2023-05-06T09:14:44.200Z,62.39
2023-05-06T09:17:24.128Z,60.86
2023-05-06T09:19:53.621Z,62.38
2023-05-06T09:22:23.665Z,62.01
2023-05-06T09:24:56.998Z,66.28
2023-05-06T09:27:26.989Z,66.31
2023-05-06T09:30:06.026Z,65.49
2023-05-06T09:32:38.188Z,67.89
2023-05-06T09:35:10.044Z,65.96
2023-05-06T09:37:39.802Z,67.49
2023-05-06T09:40:11.027Z,57.57
2023-05-06T09:42:39.696Z,61.71
2023-05-06T09:45:11.144Z,58.81
2023-05-06T09:47:40.129Z,61.63
2023-05-06T09:50:11.809Z,62.60
2023-05-06T09:52:40.255Z,62.49
2023-05-06T09:55:10.389Z,62.76
2023-05-06T09:57:39.388Z,63.79
2023-05-06T10:00:13.281Z,64.28
2023-05-06T10:02:42.796Z,67.19
2023-05-06T10:05:14.051Z,67.06
2023-05-06T10:07:43.164Z,70.27
2023-05-06T10:10:13.520Z,68.75
2023-05-06T10:12:42.411Z,64.84
2023-05-06T10:15:13.031Z,64.05
2023-05-06T10:17:42.855Z,61.61
2023-05-06T10:20:15.086Z,62.23
2023-05-06T10:22:56.635Z,64.38
2023-05-06T10:25:33.299Z,64.70
2023-05-06T10:28:05.586Z,65.93
2023-05-06T10:30:38.215Z,65.62
2023-05-06T10:33:08.938Z,67.33
2023-05-06T10:35:49.490Z,65.51
2023-05-06T10:38:24.866Z,66.58
2023-05-06T10:40:54.462Z,63.70
2023-05-06T10:43:26.646Z,62.89
2023-05-06T10:46:06.392Z,61.26
2023-05-06T10:48:35.196Z,58.42
2023-05-06T10:51:23.838Z,59.11
2023-05-06T10:54:06.954Z,59.69
2023-05-06T10:56:37.160Z,58.76
2023-05-06T10:59:09.588Z,58.45
2023-05-06T11:01:41.479Z,62.05
2023-05-06T11:04:12.022Z,60.53
2023-05-06T11:06:44.724Z,61.31
2023-05-06T11:09:21.916Z,60.54
2023-05-06T11:11:54.341Z,62.23
2023-05-06T11:14:35.450Z,60.86
2023-05-06T11:17:07.354Z,60.48
2023-05-06T11:19:37.932Z,60.47
2023-05-06T11:22:07.848Z,62.63
2023-05-06T11:24:42.336Z,62.19
2023-05-06T11:27:12.566Z,61.76
2023-05-06T11:29:40.998Z,58.78
2023-05-06T11:32:23.937Z,53.64
2023-05-06T11:34:57.488Z,55.12
2023-05-06T11:37:27.318Z,56.12
2023-05-06T11:39:56.358Z,59.20
2023-05-06T11:42:29.956Z,59.61
2023-05-06T11:45:02.819Z,55.83
2023-05-06T11:47:32.690Z,57.59
2023-05-06T11:50:06.824Z,55.47
2023-05-06T11:52:37.230Z,53.94
2023-05-06T11:55:11.249Z,53.72
2023-05-06T11:57:46.276Z,53.55
2023-05-06T12:00:16.216Z,56.09
2023-05-06T12:02:46.111Z,56.85
2023-05-06T12:05:14.709Z,55.47
2023-05-06T12:07:45.363Z,56.29
2023-05-06T12:10:17.078Z,57.36
2023-05-06T12:12:45.757Z,55.52
2023-05-06T12:15:14.394Z,54.58
2023-05-06T12:17:43.034Z,56.99
2023-05-06T12:20:14.578Z,55.69
2023-05-06T12:22:43.022Z,55.70
2023-05-06T12:25:16.412Z,53.77
2023-05-06T12:27:45.834Z,55.51
2023-05-06T12:30:14.898Z,52.84
2023-05-06T12:33:04.327Z,53.73
2023-05-06T12:35:34.402Z,57.55
2023-05-06T12:38:11.127Z,56.86
2023-05-06T12:40:40.602Z,54.38
2023-05-06T12:43:09.698Z,55.70
2023-05-06T12:45:38.971Z,56.19
2023-05-06T12:48:08.629Z,57.92
2023-05-06T12:50:42.130Z,61.67
2023-05-06T12:53:13.565Z,62.95
2023-05-06T12:55:42.953Z,61.94
2023-05-06T12:58:17.959Z,61.97
2023-05-06T13:00:47.143Z,63.95
2023-05-06T13:03:15.732Z,62.62
2023-05-06T13:05:47.046Z,63.77
2023-05-06T13:08:15.469Z,63.25
2023-05-06T13:10:43.954Z,60.91
2023-05-06T13:13:12.516Z,62.69
2023-05-06T13:15:41.218Z,62.75
2023-05-06T13:18:10.453Z,60.73
2023-05-06T13:20:38.939Z,61.80
2023-05-06T13:23:08.776Z,63.11
2023-05-06T13:25:47.897Z,60.92
2023-05-06T13:28:26.046Z,59.09
2023-05-06T13:30:54.558Z,61.21
2023-05-06T13:33:23.023Z,60.68
2023-05-06T13:35:51.514Z,62.25
2023-05-06T13:38:21.812Z,63.46
2023-05-06T13:40:53.541Z,63.16
2023-05-06T13:43:24.651Z,63.69
2023-05-06T13:45:53.656Z,61.14
2023-05-06T13:48:25.731Z,60.59
2023-05-06T13:50:54.167Z,61.35
2023-05-06T13:53:24.043Z,61.90
2023-05-06T13:55:52.654Z,62.25
2023-05-06T13:58:21.129Z,62.33
2023-05-06T14:00:49.711Z,65.28
2023-05-06T14:03:18.177Z,64.92
2023-05-06T14:05:46.708Z,64.74
2023-05-06T14:08:15.186Z,63.22
2023-05-06T14:10:45.436Z,65.01
2023-05-06T14:13:13.920Z,63.74
2023-05-06T14:15:42.734Z,62.78
2023-05-06T14:18:11.272Z,62.48
2023-05-06T14:20:41.042Z,61.18
2023-05-06T14:23:09.470Z,61.60
2023-05-06T14:25:37.940Z,60.08
2023-05-06T14:28:07.982Z,59.53
2023-05-06T14:30:37.171Z,59.80
2023-05-06T14:33:06.099Z,59.29
2023-05-06T14:35:34.641Z,62.66
2023-05-06T14:38:03.323Z,62.33
2023-05-06T14:40:31.831Z,60.74
2023-05-06T14:43:00.620Z,60.01
2023-05-06T14:45:31.340Z,59.71
2023-05-06T14:47:59.864Z,59.26
2023-05-06T14:50:28.381Z,60.28
2023-05-06T14:52:56.820Z,60.37
2023-05-06T14:55:26.083Z,58.45
2023-05-06T14:57:54.525Z,57.38
2023-05-06T15:00:24.045Z,58.16
2023-05-06T15:02:53.967Z,57.58
2023-05-06T15:05:22.492Z,54.78
2023-05-06T15:07:51.436Z,56.78
2023-05-06T15:10:20.090Z,57.51
2023-05-06T15:12:48.524Z,54.95
2023-05-06T15:15:17.225Z,56.83
2023-05-06T15:17:45.715Z,55.21
2023-05-06T15:20:16.284Z,54.00
2023-05-06T15:22:44.718Z,56.59
2023-05-06T15:25:22.431Z,55.10
2023-05-06T15:27:55.152Z,56.35
2023-05-06T15:30:24.088Z,57.77
2023-05-06T15:32:52.626Z,57.02
2023-05-06T15:35:22.816Z,57.47
2023-05-06T15:37:58.484Z,57.15
2023-05-06T15:40:27.649Z,56.10
2023-05-06T15:42:56.298Z,58.01
2023-05-06T15:45:24.769Z,58.85
2023-05-06T15:47:54.329Z,58.45
2023-05-06T15:50:32.408Z,57.04
2023-05-06T15:53:02.624Z,59.76
2023-05-06T15:55:35.131Z,58.49
2023-05-06T15:58:10.050Z,57.74
2023-05-06T16:00:38.709Z,56.64
2023-05-06T16:03:09.807Z,55.83
2023-05-06T16:05:41.717Z,58.29
2023-05-06T16:08:10.172Z,54.39
2023-05-06T16:10:38.588Z,54.64
2023-05-06T16:13:07.120Z,54.64
2023-05-06T16:15:35.879Z,57.52
2023-05-06T16:18:04.546Z,56.42
2023-05-06T16:20:33.350Z,54.98
2023-05-06T16:23:03.637Z,56.51
2023-05-06T16:25:32.126Z,56.07
2023-05-06T16:28:00.814Z,56.62
2023-05-06T16:30:29.360Z,57.72
2023-05-06T16:32:58.065Z,57.66
2023-05-06T16:35:26.837Z,55.28
2023-05-06T16:37:55.568Z,55.21
2023-05-06T16:40:25.781Z,56.97
2023-05-06T16:42:54.563Z,55.21
2023-05-06T16:45:23.004Z,54.42
2023-05-06T16:47:51.527Z,54.77
2023-05-06T16:50:20.343Z,52.62
2023-05-06T16:52:48.835Z,55.89
2023-05-06T16:55:17.404Z,57.91
2023-05-06T16:57:47.218Z,56.40
2023-05-06T17:00:16.998Z,58.68
2023-05-06T17:02:46.252Z,56.96
2023-05-06T17:05:14.999Z,57.20
2023-05-06T17:07:43.637Z,56.88
2023-05-06T17:10:13.249Z,58.49
2023-05-06T17:12:42.973Z,59.31
2023-05-06T17:15:14.064Z,58.49
2023-05-06T17:17:42.597Z,59.92
2023-05-06T17:20:12.044Z,61.68
2023-05-06T17:22:41.000Z,60.26
2023-05-06T17:25:10.824Z,63.90
2023-05-06T17:27:39.545Z,62.81
2023-05-06T17:30:10.617Z,63.10
2023-05-06T17:32:40.969Z,63.46
2023-05-06T17:35:10.983Z,63.18
2023-05-06T17:37:40.190Z,65.79
2023-05-06T17:40:10.126Z,70.68
2023-05-06T17:42:38.565Z,71.42
2023-05-06T17:45:08.758Z,70.45
2023-05-06T17:47:37.681Z,66.12
2023-05-06T17:50:08.566Z,67.84
2023-05-06T17:52:37.218Z,70.23
2023-05-06T17:55:16.524Z,73.00
2023-05-06T17:57:46.046Z,72.52
2023-05-06T18:00:16.729Z,77.37
2023-05-06T18:02:45.732Z,77.45
2023-05-06T18:05:15.664Z,77.61
2023-05-06T18:07:44.136Z,78.63
2023-05-06T18:10:13.005Z,78.73
2023-05-06T18:12:41.516Z,79.29
2023-05-06T18:15:11.505Z,79.65
2023-05-06T18:17:40.653Z,78.88
2023-05-06T18:20:10.939Z,76.59
2023-05-06T18:22:43.101Z,79.36
2023-05-06T18:25:12.305Z,80.94
2023-05-06T18:27:41.068Z,81.39
2023-05-06T18:30:10.292Z,79.48
2023-05-06T18:32:38.790Z,82.42
2023-05-06T18:35:08.653Z,82.15
2023-05-06T18:37:37.357Z,82.99
2023-05-06T18:40:10.210Z,83.06
2023-05-06T18:42:38.645Z,83.25
2023-05-06T18:45:09.068Z,83.52
2023-05-06T18:47:40.184Z,84.27
2023-05-06T18:50:10.155Z,82.42
2023-05-06T18:52:38.877Z,81.72
2023-05-06T18:55:10.093Z,80.55
2023-05-06T18:57:39.016Z,82.38
2023-05-06T19:00:09.343Z,83.50
2023-05-06T19:02:38.054Z,84.45
2023-05-06T19:05:08.374Z,84.55
2023-05-06T19:07:37.094Z,82.33
2023-05-06T19:10:06.671Z,82.53
2023-05-06T19:12:36.604Z,83.61
2023-05-06T19:15:06.225Z,84.62
2023-05-06T19:17:34.706Z,86.17
2023-05-06T19:20:04.226Z,84.92
2023-05-06T19:22:32.985Z,86.86
2023-05-06T19:25:01.455Z,87.21
2023-05-06T19:27:30.702Z,87.08
2023-05-06T19:30:00.576Z,86.88
2023-05-06T19:32:29.295Z,86.14
2023-05-06T19:34:59.117Z,83.78
2023-05-06T19:37:30.383Z,86.96
2023-05-06T19:39:58.814Z,83.63
2023-05-06T19:42:27.248Z,84.99
2023-05-06T19:44:56.029Z,85.94
2023-05-06T19:47:26.000Z,86.44
2023-05-06T19:49:54.440Z,86.48
2023-05-06T19:52:25.193Z,87.40
2023-05-06T19:54:54.394Z,86.90
2023-05-06T19:57:22.942Z,86.99
2023-05-06T19:59:51.417Z,87.24
2023-05-06T20:02:19.852Z,86.36
2023-05-06T20:04:49.887Z,84.49
2023-05-06T20:07:19.181Z,85.99
2023-05-06T20:09:55.351Z,85.30
2023-05-06T20:12:24.331Z,86.56
2023-05-06T20:14:52.785Z,86.39
2023-05-06T20:17:21.436Z,86.42
2023-05-06T20:19:52.477Z,85.21
2023-05-06T20:22:20.920Z,82.79
2023-05-06T20:24:49.357Z,84.51
2023-05-06T20:27:18.196Z,83.43
2023-05-06T20:29:46.649Z,84.12
2023-05-06T20:32:15.134Z,84.73
2023-05-06T20:34:43.587Z,85.71
2023-05-06T20:37:14.263Z,84.09
2023-05-06T20:39:43.764Z,86.12
2023-05-06T20:42:12.237Z,85.49
2023-05-06T20:44:40.886Z,84.79
2023-05-06T20:47:12.464Z,84.33
2023-05-06T20:49:41.182Z,84.84
2023-05-06T20:52:14.456Z,85.26
2023-05-06T20:54:45.254Z,84.11
2023-05-06T20:57:16.476Z,83.83
2023-05-06T20:59:45.004Z,84.84
2023-05-06T21:02:13.479Z,84.76
2023-05-06T21:04:42.500Z,85.47
2023-05-06T21:07:10.938Z,84.53
2023-05-06T21:09:40.090Z,85.86
2023-05-06T21:12:10.526Z,85.75
2023-05-06T21:14:38.979Z,85.27
2023-05-06T21:17:08.447Z,86.75
2023-05-06T21:19:36.960Z,85.04
2023-05-06T21:22:05.439Z,84.58
2023-05-06T21:24:33.862Z,85.55
2023-05-06T21:27:02.691Z,88.43
2023-05-06T21:29:32.488Z,86.87
2023-05-06T21:32:00.959Z,88.00
2023-05-06T21:34:29.602Z,85.34
2023-05-06T21:36:58.379Z,88.27
2023-05-06T21:39:27.131Z,86.97
2023-05-06T21:41:55.556Z,86.42
2023-05-06T21:44:23.986Z,86.80
2023-05-06T21:46:53.943Z,87.79
2023-05-06T21:49:22.840Z,87.59
2023-05-06T21:51:51.320Z,88.78
2023-05-06T21:54:19.799Z,87.31
2023-05-06T21:56:48.445Z,88.55
2023-05-06T21:59:16.869Z,90.35
2023-05-06T22:01:45.369Z,89.60
2023-05-06T22:04:16.779Z,87.81
2023-05-06T22:06:45.339Z,85.08
2023-05-06T22:09:13.796Z,87.19
2023-05-06T22:11:42.218Z,86.40
2023-05-06T22:14:10.915Z,88.01
2023-05-06T22:16:39.668Z,87.39
2023-05-06T22:19:08.787Z,85.07
2023-05-06T22:21:38.609Z,84.23
2023-05-06T22:24:07.828Z,86.63
2023-05-06T22:26:36.273Z,85.92
2023-05-06T22:29:04.703Z,89.88
2023-05-06T22:31:33.223Z,86.68
2023-05-06T22:34:04.634Z,88.45
2023-05-06T22:36:33.936Z,87.91
2023-05-06T22:39:04.099Z,87.36
2023-05-06T22:41:32.554Z,86.50
2023-05-06T22:44:01.358Z,89.67
2023-05-06T22:46:30.674Z,89.91
2023-05-06T22:49:00.143Z,86.82
2023-05-06T22:51:28.851Z,87.71
2023-05-06T22:53:57.274Z,86.05
2023-05-06T22:56:27.215Z,87.38
2023-05-06T22:58:55.893Z,86.31
2023-05-06T23:01:25.742Z,87.20
2023-05-06T23:03:54.247Z,86.38
2023-05-06T23:06:22.743Z,87.35
2023-05-06T23:08:51.163Z,86.56
2023-05-06T23:11:19.615Z,87.46
2023-05-06T23:13:49.459Z,85.35
2023-05-06T23:16:18.187Z,84.42
2023-05-06T23:18:47.048Z,91.11
2023-05-06T23:21:15.496Z,90.32
2023-05-06T23:23:43.923Z,87.53
2023-05-06T23:26:12.476Z,89.64
2023-05-06T23:28:40.955Z,85.49
2023-05-06T23:31:10.860Z,86.38
2023-05-06T23:33:39.337Z,87.54
2023-05-06T23:36:08.532Z,87.10
2023-05-06T23:38:37.218Z,85.89
2023-05-06T23:41:06.471Z,85.95
2023-05-06T23:43:34.903Z,87.92
2023-05-06T23:46:03.463Z,87.25
2023-05-06T23:48:33.298Z,88.53
2023-05-06T23:51:01.797Z,88.67
2023-05-06T23:53:30.368Z,87.24
2023-05-06T23:55:59.110Z,87.49
2023-05-06T23:58:27.619Z,87.95
